Time;durP1;ratioP1;P1;durP2;ratioP2;P2;SDS_P1;SDS_P2;PMS_P1;PMS_P2;Temp;Humidity;BMP_temperature;BMP_pressure;BME280_temperature;BME280_humidity;BME280_pressure;Samples;Min_cycle;Max_cycle;Signal;HPM_P1;HPM_P2
2023/05/03 00:00:28;;;;;;;9.73;3.43;;;;;;;;;;5069550;28;20541;-67
2023/05/03 00:02:56;;;;;;;8.98;3.40;;;;;;;;;;5060491;28;20024;-68
2023/05/03 00:05:21;;;;;;;8.00;2.92;;;;;;;;;;5044674;28;20033;-68
2023/05/03 00:07:46;;;;;;;7.03;2.92;;;;;;;;;;5036477;28;20388;-68
2023/05/03 00:10:12;;;;;;;9.13;2.72;;;;;;;;;;5038163;28;20016;-68
2023/05/03 00:12:41;;;;;;;6.68;2.78;;;;;;;;;;5049614;28;20024;-67
2023/05/03 00:15:07;;;;;;;8.27;2.63;;;;;;;;;;5046055;28;20039;-67
2023/05/03 00:17:32;;;;;;;8.75;2.88;;;;;;;;;;5043620;28;20438;-67
2023/05/03 00:19:58;;;;;;;8.07;2.70;;;;;;;;;;5039888;28;20115;-70
2023/05/03 00:22:23;;;;;;;8.15;2.80;;;;;;;;;;5046086;28;20029;-69
2023/05/03 00:24:50;;;;;;;7.00;2.47;;;;;;;;;;5044835;28;20017;-69
2023/05/03 00:27:15;;;;;;;8.23;2.65;;;;;;;;;;5049598;28;20057;-68
2023/05/03 00:29:40;;;;;;;12.63;2.70;;;;;;;;;;5045154;28;20095;-69
2023/05/03 00:32:06;;;;;;;6.80;2.50;;;;;;;;;;5052606;28;20495;-68
2023/05/03 00:34:31;;;;;;;6.28;2.80;;;;;;;;;;5046051;28;20043;-68
2023/05/03 00:36:56;;;;;;;6.03;2.60;;;;;;;;;;5044825;28;20021;-68
2023/05/03 00:39:22;;;;;;;9.15;2.97;;;;;;;;;;5040591;28;20381;-69
2023/05/03 00:41:47;;;;;;;7.32;3.33;;;;;;;;;;5039662;28;20017;-69
2023/05/03 00:44:12;;;;;;;7.75;3.08;;;;;;;;;;5040143;28;20119;-69
2023/05/03 00:46:37;;;;;;;9.07;3.73;;;;;;;;;;5037288;28;20358;-69
2023/05/03 00:49:02;;;;;;;9.57;3.58;;;;;;;;;;5042972;28;20108;-68
2023/05/03 00:51:27;;;;;;;11.17;3.80;;;;;;;;;;5048217;28;20020;-68
2023/05/03 00:53:52;;;;;;;10.73;3.50;;;;;;;;;;5047308;28;20017;-69
2023/05/03 00:56:24;;;;;;;8.85;3.53;;;;;;;;;;5050834;28;20105;-68
2023/05/03 00:58:52;;;;;;;8.25;3.50;;;;;;;;;;5033733;28;20044;-68
2023/05/03 01:01:17;;;;;;;13.18;4.05;;;;;;;;;;5047668;28;20537;-68
2023/05/03 01:03:45;;;;;;;7.77;3.50;;;;;;;;;;5044284;28;20025;-68
2023/05/03 01:06:31;;;;;;;7.95;3.70;;;;;;;;;;5045621;28;20052;-69
2023/05/03 01:09:02;;;;;;;8.90;3.45;;;;;;;;;;5041257;28;20013;-69
2023/05/03 01:11:36;;;;;;;9.73;3.33;;;;;;;;;;5058506;28;20021;-69
2023/05/03 01:14:09;;;;;;;8.32;3.25;;;;;;;;;;5050797;28;20061;-69
2023/05/03 01:16:48;;;;;;;7.97;3.22;;;;;;;;;;5044474;28;20025;-69
2023/05/03 01:19:34;;;;;;;9.57;3.53;;;;;;;;;;5044154;28;20024;-69
2023/05/03 01:22:02;;;;;;;10.50;3.53;;;;;;;;;;5044645;28;20104;-69
2023/05/03 01:24:28;;;;;;;7.45;3.50;;;;;;;;;;5048809;28;20384;-69
2023/05/03 01:26:54;;;;;;;9.50;3.47;;;;;;;;;;5046435;28;20028;-69
2023/05/03 01:29:19;;;;;;;10.13;3.50;;;;;;;;;;5049651;28;20021;-69
2023/05/03 01:31:48;;;;;;;10.73;3.50;;;;;;;;;;5045353;28;20094;-69
2023/05/03 01:34:16;;;;;;;13.63;3.88;;;;;;;;;;5048435;28;20026;-69
2023/05/03 01:36:42;;;;;;;7.13;3.20;;;;;;;;;;5039964;28;20025;-69
2023/05/03 01:39:23;;;;;;;11.27;3.95;;;;;;;;;;5043969;28;20024;-69
2023/05/03 01:41:52;;;;;;;9.82;3.42;;;;;;;;;;5040688;28;20082;-69
2023/05/03 01:44:18;;;;;;;11.50;3.22;;;;;;;;;;5048841;28;20070;-69
2023/05/03 01:46:43;;;;;;;8.98;3.45;;;;;;;;;;5044057;28;20056;-69
2023/05/03 01:49:09;;;;;;;8.50;3.13;;;;;;;;;;5044579;28;20048;-69
2023/05/03 01:51:34;;;;;;;11.37;3.70;;;;;;;;;;5041388;28;20146;-69
2023/05/03 01:53:59;;;;;;;7.53;2.80;;;;;;;;;;5044666;28;20474;-69
2023/05/03 01:56:25;;;;;;;9.50;3.40;;;;;;;;;;5044858;28;20028;-69
2023/05/03 01:58:50;;;;;;;7.67;3.10;;;;;;;;;;5047024;28;20048;-69
2023/05/03 02:01:15;;;;;;;6.33;2.50;;;;;;;;;;5043495;28;20029;-69
2023/05/03 02:03:40;;;;;;;7.90;2.50;;;;;;;;;;5045128;28;20033;-68
2023/05/03 02:06:05;;;;;;;7.25;2.38;;;;;;;;;;5032883;28;20017;-70
2023/05/03 02:08:30;;;;;;;7.63;2.60;;;;;;;;;;5041663;28;20155;-69
2023/05/03 02:10:55;;;;;;;6.75;2.53;;;;;;;;;;5047943;28;20021;-70
2023/05/03 02:13:21;;;;;;;8.02;2.33;;;;;;;;;;5050412;28;20037;-69
2023/05/03 02:15:46;;;;;;;9.10;2.53;;;;;;;;;;5041642;28;20512;-69
2023/05/03 02:18:11;;;;;;;10.00;2.60;;;;;;;;;;5050259;28;20066;-69
2023/05/03 02:20:37;;;;;;;8.10;2.27;;;;;;;;;;5047872;28;20048;-69
2023/05/03 02:23:03;;;;;;;11.05;2.33;;;;;;;;;;5055819;28;20013;-69
2023/05/03 02:25:28;;;;;;;7.80;2.13;;;;;;;;;;5056388;28;20638;-69
2023/05/03 02:27:53;;;;;;;9.10;2.45;;;;;;;;;;5049941;28;20025;-69
2023/05/03 02:30:18;;;;;;;6.18;2.22;;;;;;;;;;5045273;28;20028;-69
2023/05/03 02:32:43;;;;;;;6.13;2.05;;;;;;;;;;5048060;28;20021;-69
2023/05/03 02:35:09;;;;;;;6.43;1.98;;;;;;;;;;5049302;28;20096;-69
2023/05/03 02:37:34;;;;;;;7.35;2.20;;;;;;;;;;5049652;28;20040;-70
2023/05/03 02:39:59;;;;;;;7.93;1.90;;;;;;;;;;5052346;28;20052;-69
2023/05/03 02:42:24;;;;;;;6.00;1.90;;;;;;;;;;5053077;28;20053;-67
2023/05/03 02:44:50;;;;;;;8.10;2.10;;;;;;;;;;5048494;28;20031;-68
2023/05/03 02:47:15;;;;;;;7.43;1.77;;;;;;;;;;5058784;28;20027;-67
2023/05/03 02:49:40;;;;;;;5.47;1.80;;;;;;;;;;5050323;28;20032;-68
2023/05/03 02:52:05;;;;;;;6.32;1.80;;;;;;;;;;5042880;28;20477;-67
2023/05/03 02:54:30;;;;;;;4.97;1.67;;;;;;;;;;5052410;28;20013;-68
2023/05/03 02:56:55;;;;;;;5.93;1.80;;;;;;;;;;5052389;28;20012;-69
2023/05/03 02:59:21;;;;;;;4.65;1.83;;;;;;;;;;5046606;28;20851;-68
2023/05/03 03:01:46;;;;;;;5.25;1.90;;;;;;;;;;5045684;28;20588;-70
2023/05/03 03:04:11;;;;;;;7.50;2.00;;;;;;;;;;5043258;28;20021;-67
2023/05/03 03:06:36;;;;;;;5.40;1.70;;;;;;;;;;5048779;28;20024;-69
2023/05/03 03:09:02;;;;;;;6.78;2.05;;;;;;;;;;5041783;28;20392;-66
2023/05/03 03:11:27;;;;;;;7.70;2.10;;;;;;;;;;5039043;28;20388;-66
2023/05/03 03:13:52;;;;;;;5.50;2.03;;;;;;;;;;5048893;28;20017;-68
2023/05/03 03:16:18;;;;;;;9.93;2.53;;;;;;;;;;5046683;28;20087;-66
2023/05/03 03:18:43;;;;;;;5.67;1.83;;;;;;;;;;5050607;28;20040;-67
2023/05/03 03:21:08;;;;;;;5.93;1.90;;;;;;;;;;5048380;28;20495;-67
2023/05/03 03:23:33;;;;;;;6.37;2.10;;;;;;;;;;5045486;28;20013;-67
2023/05/03 03:25:58;;;;;;;4.78;1.75;;;;;;;;;;5060495;28;20025;-67
2023/05/03 03:28:23;;;;;;;5.77;2.33;;;;;;;;;;5069334;28;20048;-66
2023/05/03 03:30:48;;;;;;;5.90;2.30;;;;;;;;;;5050602;28;20025;-66
2023/05/03 03:33:14;;;;;;;7.60;2.67;;;;;;;;;;5056389;28;20017;-67
2023/05/03 03:35:39;;;;;;;7.83;2.70;;;;;;;;;;5052986;28;20394;-68
2023/05/03 03:38:04;;;;;;;6.80;2.50;;;;;;;;;;5046008;28;21018;-68
2023/05/03 03:40:29;;;;;;;7.45;2.60;;;;;;;;;;5061285;28;20032;-67
2023/05/03 03:42:55;;;;;;;5.40;2.57;;;;;;;;;;5053639;28;20017;-67
2023/05/03 03:45:20;;;;;;;8.30;2.55;;;;;;;;;;5051178;28;20039;-66
2023/05/03 03:47:45;;;;;;;8.27;2.67;;;;;;;;;;5048760;28;20021;-67
2023/05/03 03:50:10;;;;;;;8.40;2.45;;;;;;;;;;5054600;28;20103;-68
2023/05/03 03:52:35;;;;;;;8.20;2.70;;;;;;;;;;5060502;28;20483;-68
2023/05/03 03:55:01;;;;;;;8.07;2.60;;;;;;;;;;5049895;28;20051;-66
2023/05/03 03:57:29;;;;;;;5.85;2.55;;;;;;;;;;5047837;28;20033;-69
2023/05/03 03:59:54;;;;;;;5.78;2.60;;;;;;;;;;5049180;28;20031;-68
2023/05/03 04:02:20;;;;;;;6.77;2.70;;;;;;;;;;5049856;28;20103;-68
2023/05/03 04:04:45;;;;;;;8.23;2.50;;;;;;;;;;5059428;28;20427;-67
2023/05/03 04:07:10;;;;;;;7.03;2.70;;;;;;;;;;5061530;28;20514;-67
2023/05/03 04:09:35;;;;;;;8.13;3.00;;;;;;;;;;5053676;28;20029;-69
2023/05/03 04:12:01;;;;;;;9.38;3.17;;;;;;;;;;5058777;28;20036;-68
2023/05/03 04:14:26;;;;;;;7.30;2.65;;;;;;;;;;5050855;28;20025;-67
2023/05/03 04:16:51;;;;;;;6.18;2.60;;;;;;;;;;5050906;28;20017;-66
2023/05/03 04:19:17;;;;;;;6.70;2.80;;;;;;;;;;5044301;28;20037;-66
2023/05/03 04:21:42;;;;;;;8.20;2.83;;;;;;;;;;5050254;28;20448;-67
2023/05/03 04:24:08;;;;;;;10.80;3.33;;;;;;;;;;5054882;28;22078;-67
2023/05/03 04:26:34;;;;;;;6.80;2.80;;;;;;;;;;5051809;28;20497;-67
2023/05/03 04:28:59;;;;;;;7.80;2.88;;;;;;;;;;5035471;28;20032;-67
2023/05/03 04:31:24;;;;;;;9.13;2.83;;;;;;;;;;5040216;28;20029;-66
2023/05/03 04:33:49;;;;;;;7.93;3.00;;;;;;;;;;5041732;28;20028;-66
2023/05/03 04:36:14;;;;;;;8.73;2.97;;;;;;;;;;5043967;28;20124;-68
2023/05/03 04:38:40;;;;;;;9.03;2.90;;;;;;;;;;5043728;28;20013;-66
2023/05/03 04:41:05;;;;;;;7.63;2.67;;;;;;;;;;5053630;28;20466;-66
2023/05/03 04:43:31;;;;;;;10.33;2.83;;;;;;;;;;5054855;28;20023;-67
2023/05/03 04:45:57;;;;;;;9.48;2.22;;;;;;;;;;5045508;28;20017;-66
2023/05/03 04:48:23;;;;;;;9.05;2.63;;;;;;;;;;5041350;28;20255;-66
2023/05/03 04:50:48;;;;;;;6.73;2.47;;;;;;;;;;5049418;28;20028;-66
2023/05/03 04:53:14;;;;;;;8.60;2.38;;;;;;;;;;5049577;28;20039;-66
2023/05/03 04:55:39;;;;;;;6.88;2.72;;;;;;;;;;5043062;28;20067;-65
2023/05/03 04:58:05;;;;;;;7.43;2.37;;;;;;;;;;5033391;28;20175;-66
2023/05/03 05:00:30;;;;;;;8.55;2.42;;;;;;;;;;5052961;28;20043;-66
2023/05/03 05:02:57;;;;;;;6.72;2.30;;;;;;;;;;5031352;28;20500;-66
2023/05/03 05:05:22;;;;;;;7.07;2.40;;;;;;;;;;5037753;28;20761;-66
2023/05/03 05:07:47;;;;;;;9.88;2.25;;;;;;;;;;5040097;28;20063;-65
2023/05/03 05:10:13;;;;;;;6.78;2.05;;;;;;;;;;5050945;28;20040;-68
2023/05/03 05:12:38;;;;;;;7.35;2.42;;;;;;;;;;5057564;28;20021;-68
2023/05/03 05:15:04;;;;;;;10.37;2.50;;;;;;;;;;5043214;28;20029;-67
2023/05/03 05:17:29;;;;;;;7.47;2.50;;;;;;;;;;5043781;28;20119;-66
2023/05/03 05:19:54;;;;;;;8.23;2.37;;;;;;;;;;5052995;28;20027;-67
2023/05/03 05:22:19;;;;;;;7.13;2.40;;;;;;;;;;5045971;28;20051;-66
2023/05/03 05:24:45;;;;;;;9.15;2.10;;;;;;;;;;5041098;28;20116;-66
2023/05/03 05:27:10;;;;;;;7.80;2.00;;;;;;;;;;5044815;28;20100;-67
2023/05/03 05:29:35;;;;;;;5.63;2.20;;;;;;;;;;5044146;28;20450;-66
2023/05/03 05:32:02;;;;;;;6.90;2.10;;;;;;;;;;5050387;28;20013;-67
2023/05/03 05:34:27;;;;;;;5.97;2.30;;;;;;;;;;5063267;28;20028;-67
2023/05/03 05:36:53;;;;;;;9.30;2.15;;;;;;;;;;5062574;28;20016;-67
2023/05/03 05:39:18;;;;;;;8.50;2.28;;;;;;;;;;5070639;28;20149;-67
2023/05/03 05:41:43;;;;;;;7.03;1.98;;;;;;;;;;5070616;28;20024;-67
2023/05/03 05:44:08;;;;;;;8.55;2.10;;;;;;;;;;5057985;28;20057;-66
2023/05/03 05:46:33;;;;;;;6.72;1.70;;;;;;;;;;5050808;28;20025;-68
2023/05/03 05:48:59;;;;;;;6.68;2.33;;;;;;;;;;5060900;28;20031;-67
2023/05/03 05:51:24;;;;;;;6.88;1.80;;;;;;;;;;5063028;28;20036;-66
2023/05/03 05:53:49;;;;;;;5.73;1.93;;;;;;;;;;5074125;28;20032;-66
2023/05/03 05:56:15;;;;;;;4.82;1.73;;;;;;;;;;5074794;28;20383;-65
2023/05/03 05:58:40;;;;;;;5.75;1.70;;;;;;;;;;5068454;28;20021;-66
2023/05/03 06:01:06;;;;;;;6.10;1.90;;;;;;;;;;5055035;28;20021;-66
2023/05/03 06:03:32;;;;;;;7.97;2.13;;;;;;;;;;5053153;28;20024;-66
2023/05/03 06:05:57;;;;;;;7.05;1.92;;;;;;;;;;5067780;28;20067;-66
2023/05/03 06:08:22;;;;;;;6.03;1.80;;;;;;;;;;5065923;28;20491;-66
2023/05/03 06:10:47;;;;;;;6.20;1.73;;;;;;;;;;5065035;28;20032;-67
2023/05/03 06:13:12;;;;;;;6.30;1.88;;;;;;;;;;5044001;28;20028;-67
2023/05/03 06:15:39;;;;;;;7.23;1.83;;;;;;;;;;5052642;28;20508;-68
2023/05/03 06:18:04;;;;;;;4.93;1.80;;;;;;;;;;5049797;28;20020;-67
2023/05/03 06:20:30;;;;;;;6.63;1.92;;;;;;;;;;5058118;28;20095;-68
2023/05/03 06:22:55;;;;;;;6.03;1.90;;;;;;;;;;5060422;28;20022;-68
2023/05/03 06:25:20;;;;;;;6.05;2.00;;;;;;;;;;5057676;28;20042;-68
2023/05/03 06:27:45;;;;;;;4.53;1.77;;;;;;;;;;5068020;28;20027;-67
2023/05/03 06:30:10;;;;;;;7.05;2.30;;;;;;;;;;5073860;28;20440;-68
2023/05/03 06:32:37;;;;;;;5.50;1.77;;;;;;;;;;5071800;28;20025;-67
2023/05/03 06:35:02;;;;;;;5.55;1.75;;;;;;;;;;5068888;28;20535;-67
2023/05/03 06:37:28;;;;;;;5.93;1.85;;;;;;;;;;5073613;28;20463;-68
2023/05/03 06:39:53;;;;;;;6.82;1.88;;;;;;;;;;5071394;28;20385;-68
2023/05/03 06:42:18;;;;;;;7.30;1.90;;;;;;;;;;5057597;28;20056;-67
2023/05/03 06:44:43;;;;;;;7.17;1.83;;;;;;;;;;5056433;28;20042;-67
2023/05/03 06:47:08;;;;;;;9.75;2.00;;;;;;;;;;5053076;28;20476;-67
2023/05/03 06:49:33;;;;;;;7.88;1.90;;;;;;;;;;5073419;28;20028;-67
2023/05/03 06:51:58;;;;;;;5.37;1.80;;;;;;;;;;5050551;28;20029;-68
2023/05/03 06:54:24;;;;;;;5.80;1.90;;;;;;;;;;5064088;28;20029;-67
2023/05/03 06:56:49;;;;;;;8.33;1.90;;;;;;;;;;5047479;28;20028;-67
2023/05/03 06:59:15;;;;;;;8.27;1.98;;;;;;;;;;5060808;28;20633;-67
2023/05/03 07:01:40;;;;;;;6.80;2.03;;;;;;;;;;5052119;28;20020;-67
2023/05/03 07:04:05;;;;;;;7.15;2.13;;;;;;;;;;5040880;28;20021;-67
2023/05/03 07:06:30;;;;;;;4.90;1.88;;;;;;;;;;5046405;28;20022;-68
2023/05/03 07:08:55;;;;;;;7.10;1.80;;;;;;;;;;5055108;28;20070;-66
2023/05/03 07:11:24;;;;;;;4.40;1.63;;;;;;;;;;5049850;28;20024;-66
2023/05/03 07:13:53;;;;;;;5.53;1.70;;;;;;;;;;5051513;28;20017;-66
2023/05/03 07:16:18;;;;;;;7.55;2.08;;;;;;;;;;5053109;28;20031;-67
2023/05/03 07:18:45;;;;;;;7.22;1.80;;;;;;;;;;5053361;28;20016;-66
2023/05/03 07:21:10;;;;;;;6.38;1.70;;;;;;;;;;5053446;28;20026;-65
2023/05/03 07:23:35;;;;;;;6.05;1.73;;;;;;;;;;5052340;28;20095;-67
2023/05/03 07:26:00;;;;;;;6.00;2.05;;;;;;;;;;5059406;28;20025;-66
2023/05/03 07:28:25;;;;;;;6.07;2.00;;;;;;;;;;5052188;28;20057;-67
2023/05/03 07:30:51;;;;;;;6.15;1.70;;;;;;;;;;5052882;28;20032;-67
2023/05/03 07:33:16;;;;;;;9.00;1.95;;;;;;;;;;5052204;28;20060;-67
2023/05/03 07:35:41;;;;;;;8.37;2.03;;;;;;;;;;5052965;28;20096;-67
2023/05/03 07:38:06;;;;;;;7.72;1.90;;;;;;;;;;5053222;28;20056;-68
2023/05/03 07:40:32;;;;;;;4.55;1.70;;;;;;;;;;5049210;28;20024;-67
2023/05/03 07:42:57;;;;;;;5.97;1.73;;;;;;;;;;5043216;28;20431;-67
2023/05/03 07:45:23;;;;;;;6.30;1.67;;;;;;;;;;5052260;28;20226;-66
2023/05/03 07:47:48;;;;;;;4.55;1.60;;;;;;;;;;5052284;28;20070;-66
2023/05/03 07:50:13;;;;;;;5.47;1.77;;;;;;;;;;5047822;28;20033;-67
2023/05/03 07:52:39;;;;;;;8.95;1.83;;;;;;;;;;5051894;28;20025;-65
2023/05/03 07:55:05;;;;;;;8.17;2.00;;;;;;;;;;5056911;28;20247;-65
2023/05/03 07:57:30;;;;;;;6.63;1.90;;;;;;;;;;5049812;28;20463;-66
2023/05/03 07:59:56;;;;;;;7.27;1.87;;;;;;;;;;5052260;28;20383;-67
2023/05/03 08:02:21;;;;;;;6.05;1.92;;;;;;;;;;5052016;28;20020;-66
2023/05/03 08:04:46;;;;;;;7.60;2.10;;;;;;;;;;5055986;28;20021;-67
2023/05/03 08:07:12;;;;;;;6.23;1.87;;;;;;;;;;5053996;28;20028;-67
2023/05/03 08:09:37;;;;;;;8.25;2.05;;;;;;;;;;5070351;28;20026;-65
2023/05/03 08:12:02;;;;;;;7.40;2.00;;;;;;;;;;5064771;28;20008;-66
2023/05/03 08:14:27;;;;;;;7.50;2.03;;;;;;;;;;5071493;28;20008;-65
2023/05/03 08:16:52;;;;;;;7.33;2.00;;;;;;;;;;5072090;28;20117;-68
2023/05/03 08:19:18;;;;;;;6.30;1.95;;;;;;;;;;5057786;28;20020;-68
2023/05/03 08:21:43;;;;;;;8.33;1.90;;;;;;;;;;5051924;28;20069;-66
2023/05/03 08:24:09;;;;;;;6.38;2.13;;;;;;;;;;5058681;28;20017;-66
2023/05/03 08:26:34;;;;;;;8.73;2.00;;;;;;;;;;5063715;28;20020;-66
2023/05/03 08:28:59;;;;;;;5.30;1.90;;;;;;;;;;5071620;28;20032;-66
2023/05/03 08:31:25;;;;;;;5.78;2.00;;;;;;;;;;5072001;28;20154;-68
2023/05/03 08:33:50;;;;;;;7.25;1.98;;;;;;;;;;5056654;28;20535;-67
2023/05/03 08:36:16;;;;;;;8.55;2.22;;;;;;;;;;5051616;28;20025;-66
2023/05/03 08:38:41;;;;;;;6.73;2.03;;;;;;;;;;5052205;28;20039;-66
2023/05/03 08:41:25;;;;;;;5.77;1.97;;;;;;;;;;5058535;28;20028;-65
2023/05/03 08:43:51;;;;;;;6.68;2.00;;;;;;;;;;5031160;28;20025;-67
2023/05/03 08:46:17;;;;;;;7.55;2.22;;;;;;;;;;5045689;28;20025;-66
2023/05/03 08:48:43;;;;;;;7.32;2.13;;;;;;;;;;5044207;28;20024;-66
2023/05/03 08:51:09;;;;;;;7.82;1.92;;;;;;;;;;5051365;28;20104;-66
2023/05/03 08:53:34;;;;;;;5.70;1.75;;;;;;;;;;5048122;28;20025;-67
2023/05/03 08:56:04;;;;;;;6.93;2.05;;;;;;;;;;5050668;28;20044;-67
2023/05/03 08:58:32;;;;;;;8.45;2.10;;;;;;;;;;5062300;28;20047;-65
2023/05/03 09:01:02;;;;;;;5.28;1.85;;;;;;;;;;5071029;28;20024;-67
2023/05/03 09:03:27;;;;;;;6.72;2.10;;;;;;;;;;5062173;28;20020;-64
2023/05/03 09:05:52;;;;;;;7.68;1.95;;;;;;;;;;5051103;28;20031;-66
2023/05/03 09:08:21;;;;;;;8.65;2.00;;;;;;;;;;5051594;28;20020;-65
2023/05/03 09:10:46;;;;;;;7.78;2.20;;;;;;;;;;5050488;28;20431;-66
2023/05/03 09:13:11;;;;;;;6.77;2.03;;;;;;;;;;5064182;28;20024;-66
2023/05/03 09:15:37;;;;;;;6.93;1.70;;;;;;;;;;5064032;28;20047;-65
2023/05/03 09:18:16;;;;;;;7.60;2.00;;;;;;;;;;5067273;28;20100;-66
2023/05/03 09:20:41;;;;;;;7.40;1.98;;;;;;;;;;5046130;28;20111;-67
2023/05/03 09:23:07;;;;;;;7.07;1.80;;;;;;;;;;5049504;28;20043;-65
2023/05/03 09:25:46;;;;;;;5.88;1.70;;;;;;;;;;5054916;28;20025;-66
2023/05/03 09:28:12;;;;;;;6.00;2.03;;;;;;;;;;5063220;28;20082;-66
2023/05/03 09:30:37;;;;;;;6.75;1.85;;;;;;;;;;5071075;28;20017;-66
2023/05/03 09:33:03;;;;;;;7.03;2.27;;;;;;;;;;5057478;28;20016;-67
2023/05/03 09:35:28;;;;;;;7.75;2.13;;;;;;;;;;5054171;28;20021;-67
2023/05/03 09:37:53;;;;;;;8.80;2.50;;;;;;;;;;5071073;28;20351;-67
2023/05/03 09:40:18;;;;;;;8.73;2.25;;;;;;;;;;5070684;28;20503;-67
2023/05/03 09:43:02;;;;;;;11.60;1.95;;;;;;;;;;5070386;28;20027;-66
2023/05/03 09:45:27;;;;;;;5.80;2.20;;;;;;;;;;5086257;28;20037;-67
2023/05/03 09:47:54;;;;;;;8.02;2.50;;;;;;;;;;5052009;28;20504;-68
2023/05/03 09:50:20;;;;;;;5.82;1.70;;;;;;;;;;5050212;28;20450;-66
2023/05/03 09:52:45;;;;;;;6.90;1.85;;;;;;;;;;5050256;28;20060;-66
2023/05/03 09:55:10;;;;;;;6.35;2.30;;;;;;;;;;5044093;28;20028;-65
2023/05/03 09:57:36;;;;;;;4.27;1.70;;;;;;;;;;5046706;28;20064;-66
2023/05/03 10:00:02;;;;;;;7.05;2.17;;;;;;;;;;5050494;28;20532;-67
2023/05/03 10:02:30;;;;;;;7.38;2.08;;;;;;;;;;5048571;28;20104;-67
2023/05/03 10:04:56;;;;;;;7.70;2.10;;;;;;;;;;5054451;28;20017;-66
2023/05/03 10:07:23;;;;;;;5.88;1.80;;;;;;;;;;5050344;28;20491;-66
2023/05/03 10:09:48;;;;;;;5.70;1.90;;;;;;;;;;5050845;28;20030;-66
2023/05/03 10:12:16;;;;;;;7.50;2.10;;;;;;;;;;5050642;28;20116;-67
2023/05/03 10:14:42;;;;;;;5.95;2.13;;;;;;;;;;5048373;28;20443;-67
2023/05/03 10:17:12;;;;;;;6.75;2.08;;;;;;;;;;5049124;28;20105;-67
2023/05/03 10:19:37;;;;;;;6.70;1.92;;;;;;;;;;5051481;28;20174;-66
2023/05/03 10:22:09;;;;;;;8.30;2.33;;;;;;;;;;5057631;28;20042;-67
2023/05/03 10:24:35;;;;;;;5.65;1.80;;;;;;;;;;5069688;28;20017;-66
2023/05/03 10:27:00;;;;;;;6.28;1.95;;;;;;;;;;5070366;28;20078;-67
2023/05/03 10:29:32;;;;;;;6.78;1.83;;;;;;;;;;5070285;28;20044;-67
2023/05/03 10:31:57;;;;;;;7.00;2.03;;;;;;;;;;5066770;28;20399;-66
2023/05/03 10:34:23;;;;;;;7.87;2.03;;;;;;;;;;5044225;28;20108;-67
2023/05/03 10:36:54;;;;;;;5.55;1.90;;;;;;;;;;5050772;28;20033;-68
2023/05/03 10:39:19;;;;;;;4.57;1.83;;;;;;;;;;5054130;28;20104;-67
2023/05/03 10:41:55;;;;;;;5.35;1.85;;;;;;;;;;5054238;28;20100;-66
2023/05/03 10:44:47;;;;;;;5.30;1.92;;;;;;;;;;5053403;28;20009;-66
2023/05/03 10:47:15;;;;;;;7.65;2.17;;;;;;;;;;5050384;28;20052;-68
2023/05/03 10:49:40;;;;;;;6.78;2.22;;;;;;;;;;5051350;28;20048;-66
2023/05/03 10:52:26;;;;;;;6.30;1.80;;;;;;;;;;5054395;28;20507;-66
2023/05/03 10:54:51;;;;;;;6.22;1.80;;;;;;;;;;5051061;28;20099;-66
2023/05/03 10:57:16;;;;;;;7.10;1.92;;;;;;;;;;5055228;28;20032;-66
2023/05/03 10:59:46;;;;;;;5.87;1.70;;;;;;;;;;5058160;28;20051;-67
2023/05/03 11:02:15;;;;;;;5.80;1.90;;;;;;;;;;5046545;28;20459;-67
2023/05/03 11:04:44;;;;;;;6.75;1.73;;;;;;;;;;5047530;28;20023;-66
2023/05/03 11:07:09;;;;;;;6.10;1.60;;;;;;;;;;5061744;28;20491;-66
2023/05/03 11:09:35;;;;;;;5.50;1.67;;;;;;;;;;5073555;28;20024;-66
2023/05/03 11:12:07;;;;;;;5.25;1.92;;;;;;;;;;5073063;28;20091;-67
2023/05/03 11:14:32;;;;;;;5.50;1.80;;;;;;;;;;5072908;28;20024;-67
2023/05/03 11:16:57;;;;;;;6.13;1.80;;;;;;;;;;5064076;28;20108;-67
2023/05/03 11:19:23;;;;;;;5.53;1.90;;;;;;;;;;5057254;28;20483;-67
2023/05/03 11:21:49;;;;;;;7.30;1.98;;;;;;;;;;5061153;28;20485;-67
2023/05/03 11:24:15;;;;;;;5.85;1.80;;;;;;;;;;5052529;28;20021;-66
2023/05/03 11:26:40;;;;;;;5.85;1.63;;;;;;;;;;5052783;28;20028;-66
2023/05/03 11:29:09;;;;;;;6.25;1.60;;;;;;;;;;5053202;28;20037;-66
2023/05/03 11:31:34;;;;;;;5.32;1.90;;;;;;;;;;5049641;28;20025;-66
2023/05/03 11:33:59;;;;;;;5.43;1.87;;;;;;;;;;5055408;28;20073;-66
2023/05/03 11:36:26;;;;;;;6.13;1.87;;;;;;;;;;5052651;28;20097;-67
2023/05/03 11:38:51;;;;;;;4.88;1.75;;;;;;;;;;5053217;28;20464;-67
2023/05/03 11:41:17;;;;;;;6.10;1.70;;;;;;;;;;5048456;28;20036;-66
2023/05/03 11:43:47;;;;;;;5.68;1.77;;;;;;;;;;5052261;28;20025;-66
2023/05/03 11:46:23;;;;;;;6.60;1.90;;;;;;;;;;5055606;28;20115;-66
2023/05/03 11:48:48;;;;;;;5.30;1.90;;;;;;;;;;5064274;28;20012;-66
2023/05/03 11:51:13;;;;;;;5.10;1.80;;;;;;;;;;5065385;28;20024;-67
2023/05/03 11:53:42;;;;;;;4.93;1.53;;;;;;;;;;5051762;28;20096;-66
2023/05/03 11:56:11;;;;;;;6.13;1.92;;;;;;;;;;5053278;28;20024;-66
2023/05/03 11:58:47;;;;;;;7.30;1.88;;;;;;;;;;5052720;28;20387;-66
2023/05/03 12:01:13;;;;;;;5.13;1.80;;;;;;;;;;5050987;28;20071;-67
2023/05/03 12:03:38;;;;;;;5.38;1.50;;;;;;;;;;5061322;28;20090;-67
2023/05/03 12:06:04;;;;;;;5.55;1.60;;;;;;;;;;5051389;28;20052;-67
2023/05/03 12:08:30;;;;;;;5.55;1.70;;;;;;;;;;5052337;28;20033;-66
2023/05/03 12:10:56;;;;;;;7.38;1.55;;;;;;;;;;5049440;28;20443;-65
2023/05/03 12:13:31;;;;;;;3.90;1.50;;;;;;;;;;5045220;28;20036;-66
2023/05/03 12:15:59;;;;;;;7.25;1.90;;;;;;;;;;5057343;28;20060;-66
2023/05/03 12:18:25;;;;;;;7.18;1.90;;;;;;;;;;5063998;28;20498;-66
2023/05/03 12:20:54;;;;;;;5.35;1.67;;;;;;;;;;5058150;28;20033;-65
2023/05/03 12:23:20;;;;;;;4.10;1.52;;;;;;;;;;5051386;28;20020;-65
2023/05/03 12:25:46;;;;;;;5.90;1.88;;;;;;;;;;5052185;28;20384;-66
2023/05/03 12:28:11;;;;;;;8.85;1.85;;;;;;;;;;5051954;28;20048;-67
2023/05/03 12:30:36;;;;;;;4.93;1.53;;;;;;;;;;5052182;28;20028;-66
2023/05/03 12:33:01;;;;;;;5.47;1.80;;;;;;;;;;5061807;28;20404;-65
2023/05/03 12:35:26;;;;;;;6.77;1.93;;;;;;;;;;5050538;28;20017;-66
2023/05/03 12:37:51;;;;;;;6.40;2.00;;;;;;;;;;5050626;28;20094;-66
2023/05/03 12:40:18;;;;;;;5.97;1.75;;;;;;;;;;5051992;28;20396;-67
2023/05/03 12:42:43;;;;;;;6.95;2.08;;;;;;;;;;5051802;28;20048;-67
2023/05/03 12:45:10;;;;;;;8.87;2.10;;;;;;;;;;5051488;28;20060;-67
2023/05/03 12:47:38;;;;;;;5.07;1.60;;;;;;;;;;5054477;28;20066;-66
2023/05/03 12:50:03;;;;;;;4.38;1.52;;;;;;;;;;5060366;28;20021;-66
2023/05/03 12:52:30;;;;;;;8.52;1.63;;;;;;;;;;5062243;28;20025;-66
2023/05/03 12:54:55;;;;;;;7.68;1.85;;;;;;;;;;5051741;28;20032;-67
2023/05/03 12:57:21;;;;;;;5.40;1.70;;;;;;;;;;5054318;28;20392;-67
2023/05/03 12:59:48;;;;;;;7.03;1.67;;;;;;;;;;5062720;28;20062;-64
2023/05/03 13:02:13;;;;;;;6.70;1.80;;;;;;;;;;5071353;28;20020;-65
2023/05/03 13:04:39;;;;;;;5.63;1.88;;;;;;;;;;5058168;28;20031;-66
2023/05/03 13:07:04;;;;;;;5.53;1.60;;;;;;;;;;5047811;28;20021;-67
2023/05/03 13:09:30;;;;;;;6.53;1.83;;;;;;;;;;5052125;28;20013;-67
2023/05/03 13:11:55;;;;;;;5.18;1.60;;;;;;;;;;5051206;28;20457;-66
2023/05/03 13:14:20;;;;;;;4.85;1.55;;;;;;;;;;5050383;28;20388;-66
2023/05/03 13:16:46;;;;;;;5.43;1.50;;;;;;;;;;5051051;28;20036;-66
2023/05/03 13:19:14;;;;;;;5.00;1.70;;;;;;;;;;5041984;28;20104;-66
2023/05/03 13:21:40;;;;;;;5.22;1.70;;;;;;;;;;5036665;28;20100;-66
2023/05/03 13:24:05;;;;;;;5.72;1.90;;;;;;;;;;5046410;28;20099;-67
2023/05/03 13:26:31;;;;;;;6.22;1.73;;;;;;;;;;5050552;28;20679;-65
2023/05/03 13:28:57;;;;;;;4.60;1.63;;;;;;;;;;5049433;28;20031;-65
2023/05/03 13:31:23;;;;;;;5.88;1.80;;;;;;;;;;5050404;28;20044;-67
2023/05/03 13:33:48;;;;;;;7.20;1.70;;;;;;;;;;5047322;28;20544;-67
2023/05/03 13:36:14;;;;;;;5.93;1.85;;;;;;;;;;5049525;28;20121;-67
2023/05/03 13:38:40;;;;;;;7.30;2.00;;;;;;;;;;5050642;28;20025;-67
2023/05/03 13:41:07;;;;;;;6.70;1.60;;;;;;;;;;5048337;28;20033;-66
2023/05/03 13:43:32;;;;;;;4.45;1.38;;;;;;;;;;5050066;28;20504;-66
2023/05/03 13:46:01;;;;;;;8.33;1.70;;;;;;;;;;5050098;28;20048;-65
2023/05/03 13:48:26;;;;;;;11.00;1.70;;;;;;;;;;5042095;28;20026;-67
2023/05/03 13:50:51;;;;;;;7.22;1.80;;;;;;;;;;5059104;28;20108;-68
2023/05/03 13:53:17;;;;;;;6.35;1.40;;;;;;;;;;5050664;28;20032;-67
2023/05/03 13:55:42;;;;;;;4.83;1.53;;;;;;;;;;5054993;28;20040;-66
2023/05/03 13:58:07;;;;;;;5.95;1.70;;;;;;;;;;5040483;28;20048;-65
2023/05/03 14:00:32;;;;;;;7.10;1.70;;;;;;;;;;5050165;28;20028;-67
2023/05/03 14:02:57;;;;;;;7.30;1.60;;;;;;;;;;5047305;28;20082;-67
2023/05/03 14:05:22;;;;;;;4.75;1.92;;;;;;;;;;5041099;28;20079;-67
2023/05/03 14:07:48;;;;;;;6.78;2.03;;;;;;;;;;5054270;28;20441;-66
2023/05/03 14:10:13;;;;;;;4.63;1.50;;;;;;;;;;5055959;28;20017;-66
2023/05/03 14:12:38;;;;;;;6.78;1.83;;;;;;;;;;5057192;28;20075;-67
2023/05/03 14:15:04;;;;;;;8.15;1.92;;;;;;;;;;5061853;28;20085;-66
2023/05/03 14:17:29;;;;;;;4.50;1.42;;;;;;;;;;5054279;28;20468;-66
2023/05/03 14:19:54;;;;;;;6.40;1.80;;;;;;;;;;5051701;28;20017;-65
2023/05/03 14:22:20;;;;;;;5.47;1.43;;;;;;;;;;5053831;28;20522;-66
2023/05/03 14:24:45;;;;;;;5.37;1.60;;;;;;;;;;5053643;28;21008;-66
2023/05/03 14:27:11;;;;;;;5.38;1.52;;;;;;;;;;5050977;28;20477;-66
2023/05/03 14:29:36;;;;;;;8.88;1.92;;;;;;;;;;5054030;28;20542;-68
2023/05/03 14:32:02;;;;;;;9.10;1.77;;;;;;;;;;5053781;28;20048;-65
2023/05/03 14:34:27;;;;;;;5.60;1.67;;;;;;;;;;5051660;28;20032;-66
2023/05/03 14:36:53;;;;;;;7.50;1.70;;;;;;;;;;5053809;28;20012;-66